createdAt,value
2019-03-28T00:00:43.174Z,1028.55
2019-03-28T00:01:43.162Z,1028.56
2019-03-28T00:02:43.170Z,1028.53
2019-03-28T00:03:43.165Z,1028.52
2019-03-28T00:04:43.176Z,1028.52
2019-03-28T00:05:43.178Z,1028.54
2019-03-28T00:06:43.178Z,1028.54
2019-03-28T00:07:43.184Z,1028.55
2019-03-28T00:08:43.189Z,1028.54
2019-03-28T00:09:43.203Z,1028.59
2019-03-28T00:10:43.192Z,1028.55
2019-03-28T00:11:43.196Z,1028.62
2019-03-28T00:12:43.207Z,1028.62
2019-03-28T00:13:43.208Z,1028.61
2019-03-28T00:14:43.348Z,1028.58
2019-03-28T00:15:43.218Z,1028.60
2019-03-28T00:16:43.216Z,1028.57
2019-03-28T00:17:43.218Z,1028.57
2019-03-28T00:18:43.216Z,1028.52
2019-03-28T00:19:43.230Z,1028.51
2019-03-28T00:20:43.231Z,1028.55
2019-03-28T00:21:43.238Z,1028.52
2019-03-28T00:22:43.244Z,1028.49
2019-03-28T00:23:43.243Z,1028.52
2019-03-28T00:24:43.243Z,1028.47
2019-03-28T00:25:43.254Z,1028.49
2019-03-28T00:26:43.244Z,1028.52
2019-03-28T00:27:43.256Z,1028.48
2019-03-28T00:28:43.256Z,1028.47
2019-03-28T00:29:43.264Z,1028.50
2019-03-28T00:30:43.266Z,1028.47
2019-03-28T00:31:43.269Z,1028.42
2019-03-28T00:32:43.263Z,1028.43
2019-03-28T00:33:43.293Z,1028.40
2019-03-28T00:34:43.277Z,1028.37
2019-03-28T00:35:43.282Z,1028.38
2019-03-28T00:36:43.334Z,1028.33
2019-03-28T00:37:43.294Z,1028.31
2019-03-28T00:38:43.321Z,1028.32
2019-03-28T00:39:43.288Z,1028.27
2019-03-28T00:40:43.350Z,1028.30
2019-03-28T00:41:43.306Z,1028.30
2019-03-28T00:42:43.316Z,1028.29
2019-03-28T00:43:43.310Z,1028.31
2019-03-28T00:44:43.508Z,1028.32
2019-03-28T00:45:44.625Z,1028.27
2019-03-28T00:46:43.334Z,1028.29
2019-03-28T00:47:43.328Z,1028.26
2019-03-28T00:48:43.354Z,1028.29
2019-03-28T00:49:43.388Z,1028.23
2019-03-28T00:50:43.476Z,1028.25
2019-03-28T00:51:43.493Z,1028.26
2019-03-28T00:52:43.364Z,1028.29
2019-03-28T00:53:43.362Z,1028.28
2019-03-28T00:54:43.354Z,1028.31
2019-03-28T00:55:43.360Z,1028.31
2019-03-28T00:56:47.135Z,1028.37
2019-03-28T00:57:44.093Z,1028.35
2019-03-28T00:58:43.381Z,1028.35
2019-03-28T00:59:43.372Z,1028.34
2019-03-28T01:00:43.394Z,1028.35
2019-03-28T01:01:43.376Z,1028.35
2019-03-28T01:02:43.394Z,1028.35
2019-03-28T01:03:43.384Z,1028.35
2019-03-28T01:04:43.412Z,1028.35
2019-03-28T01:05:43.390Z,1028.40
2019-03-28T01:06:43.388Z,1028.39
2019-03-28T01:07:43.413Z,1028.37
2019-03-28T01:08:43.404Z,1028.40
2019-03-28T01:09:43.406Z,1028.38
2019-03-28T01:10:43.478Z,1028.39
2019-03-28T01:11:43.412Z,1028.40
2019-03-28T01:12:43.431Z,1028.41
2019-03-28T01:13:43.456Z,1028.45
2019-03-28T01:14:43.424Z,1028.45
2019-03-28T01:15:43.434Z,1028.43
2019-03-28T01:16:43.468Z,1028.42
2019-03-28T01:17:43.436Z,1028.42
2019-03-28T01:18:43.446Z,1028.40
2019-03-28T01:19:43.447Z,1028.41
2019-03-28T01:20:43.476Z,1028.41
2019-03-28T01:21:43.456Z,1028.40
2019-03-28T01:22:43.464Z,1028.40
2019-03-28T01:23:43.454Z,1028.37
2019-03-28T01:24:43.500Z,1028.37
2019-03-28T01:25:43.466Z,1028.38
2019-03-28T01:26:56.241Z,1028.35
2019-03-28T01:27:43.472Z,1028.35
2019-03-28T01:28:43.488Z,1028.31
2019-03-28T01:29:43.479Z,1028.32
2019-03-28T01:30:43.488Z,1028.32
2019-03-28T01:31:43.486Z,1028.33
2019-03-28T01:32:43.488Z,1028.32
2019-03-28T01:33:43.496Z,1028.34
2019-03-28T01:34:43.500Z,1028.35
2019-03-28T01:35:43.502Z,1028.34
2019-03-28T01:36:43.502Z,1028.32
2019-03-28T01:37:43.510Z,1028.33
2019-03-28T01:38:44.041Z,1028.30
2019-03-28T01:39:43.534Z,1028.30
2019-03-28T01:40:43.513Z,1028.31
2019-03-28T01:41:43.522Z,1028.29
2019-03-28T01:42:43.529Z,1028.29
2019-03-28T01:43:43.538Z,1028.27
2019-03-28T01:44:43.532Z,1028.28
2019-03-28T01:45:43.540Z,1028.23
2019-03-28T01:46:43.555Z,1028.22
2019-03-28T01:47:43.544Z,1028.23
2019-03-28T01:48:43.552Z,1028.23
2019-03-28T01:49:43.552Z,1028.19
2019-03-28T01:50:43.564Z,1028.22
2019-03-28T01:51:43.555Z,1028.19
2019-03-28T01:52:43.568Z,1028.19
2019-03-28T01:53:43.565Z,1028.16
2019-03-28T01:54:43.590Z,1028.17
2019-03-28T01:55:43.568Z,1028.13
2019-03-28T01:56:43.576Z,1028.11
2019-03-28T01:57:43.578Z,1028.13
2019-03-28T01:58:43.584Z,1028.13
2019-03-28T01:59:43.590Z,1028.12
2019-03-28T02:00:43.588Z,1028.10
2019-03-28T02:01:43.594Z,1028.12
2019-03-28T02:02:43.593Z,1028.13
2019-03-28T02:03:43.601Z,1028.14
2019-03-28T02:04:43.601Z,1028.15
2019-03-28T02:05:43.605Z,1028.14
2019-03-28T02:06:43.615Z,1028.17
2019-03-28T02:07:43.620Z,1028.19
2019-03-28T02:08:43.625Z,1028.22
2019-03-28T02:09:43.621Z,1028.19
2019-03-28T02:10:43.627Z,1028.20
2019-03-28T02:11:43.636Z,1028.22
2019-03-28T02:12:43.631Z,1028.22
2019-03-28T02:13:43.639Z,1028.19
2019-03-28T02:14:43.633Z,1028.18
2019-03-28T02:15:43.642Z,1028.22
2019-03-28T02:16:43.647Z,1028.22
2019-03-28T02:17:43.651Z,1028.23
2019-03-28T02:18:43.649Z,1028.23
2019-03-28T02:19:43.655Z,1028.26
2019-03-28T02:20:43.659Z,1028.25
2019-03-28T02:21:43.667Z,1028.21
2019-03-28T02:22:43.665Z,1028.22
2019-03-28T02:23:43.674Z,1028.21
2019-03-28T02:24:43.671Z,1028.21
2019-03-28T02:25:43.686Z,1028.24
2019-03-28T02:26:43.680Z,1028.21
2019-03-28T02:27:43.687Z,1028.21
2019-03-28T02:28:43.685Z,1028.22
2019-03-28T02:29:43.692Z,1028.23
2019-03-28T02:30:43.698Z,1028.20
2019-03-28T02:31:43.699Z,1028.23
2019-03-28T02:32:43.691Z,1028.19
2019-03-28T02:33:43.711Z,1028.15
2019-03-28T02:34:43.708Z,1028.19
2019-03-28T02:35:43.716Z,1028.23
2019-03-28T02:36:43.718Z,1028.22
2019-03-28T02:37:43.716Z,1028.19
2019-03-28T02:38:43.723Z,1028.21
2019-03-28T02:39:43.726Z,1028.21
2019-03-28T02:40:43.727Z,1028.23
2019-03-28T02:41:43.738Z,1028.22
2019-03-28T02:42:43.739Z,1028.22
2019-03-28T02:43:43.739Z,1028.23
2019-03-28T02:44:43.742Z,1028.24
2019-03-28T02:45:43.750Z,1028.22
2019-03-28T02:46:43.761Z,1028.23
2019-03-28T02:47:43.757Z,1028.17
2019-03-28T02:48:43.755Z,1028.19
2019-03-28T02:49:43.760Z,1028.19
2019-03-28T02:50:43.765Z,1028.17
2019-03-28T02:51:43.766Z,1028.20
2019-03-28T02:52:43.777Z,1028.21
2019-03-28T02:53:43.775Z,1028.20
2019-03-28T02:54:43.783Z,1028.19
2019-03-28T02:55:43.780Z,1028.20
2019-03-28T02:56:43.783Z,1028.21
2019-03-28T02:57:44.103Z,1028.23
2019-03-28T02:58:43.806Z,1028.20
2019-03-28T02:59:43.801Z,1028.24
2019-03-28T03:00:43.798Z,1028.23
2019-03-28T03:01:43.808Z,1028.22
2019-03-28T03:02:43.811Z,1028.23
2019-03-28T03:03:43.807Z,1028.23
2019-03-28T03:04:43.816Z,1028.23
2019-03-28T03:05:43.819Z,1028.21
2019-03-28T03:06:43.817Z,1028.20
2019-03-28T03:07:43.818Z,1028.24
2019-03-28T03:08:43.827Z,1028.25
2019-03-28T03:09:43.833Z,1028.24
2019-03-28T03:10:44.188Z,1028.31
2019-03-28T03:11:43.835Z,1028.28
2019-03-28T03:12:43.838Z,1028.31
2019-03-28T03:13:43.841Z,1028.28
2019-03-28T03:14:43.851Z,1028.30
2019-03-28T03:15:43.858Z,1028.30
2019-03-28T03:16:43.851Z,1028.28
2019-03-28T03:17:43.864Z,1028.35
2019-03-28T03:18:43.862Z,1028.33
2019-03-28T03:19:43.863Z,1028.31
2019-03-28T03:20:43.934Z,1028.34
2019-03-28T03:21:43.866Z,1028.35
2019-03-28T03:22:43.875Z,1028.34
2019-03-28T03:23:43.869Z,1028.37
2019-03-28T03:24:43.879Z,1028.39
2019-03-28T03:25:43.886Z,1028.40
2019-03-28T03:26:43.887Z,1028.39
2019-03-28T03:27:56.773Z,1028.42
2019-03-28T03:28:43.901Z,1028.43
2019-03-28T03:29:43.891Z,1028.48
2019-03-28T03:30:43.901Z,1028.48
2019-03-28T03:31:43.901Z,1028.43
2019-03-28T03:32:43.903Z,1028.41
2019-03-28T03:33:43.954Z,1028.43
2019-03-28T03:34:43.921Z,1028.41
2019-03-28T03:35:43.918Z,1028.43
2019-03-28T03:36:43.939Z,1028.38
2019-03-28T03:37:43.948Z,1028.41
2019-03-28T03:38:43.930Z,1028.39
2019-03-28T03:39:43.959Z,1028.40
2019-03-28T03:40:43.942Z,1028.42
2019-03-28T03:41:44.832Z,1028.41
2019-03-28T03:42:43.944Z,1028.39
2019-03-28T03:43:43.956Z,1028.44
2019-03-28T03:44:43.943Z,1028.45
2019-03-28T03:45:43.952Z,1028.42
2019-03-28T03:46:43.957Z,1028.40
2019-03-28T03:47:43.980Z,1028.43
2019-03-28T03:48:43.975Z,1028.43
2019-03-28T03:49:43.982Z,1028.45
2019-03-28T03:50:43.971Z,1028.43
2019-03-28T03:51:46.528Z,1028.44
2019-03-28T03:52:43.986Z,1028.47
2019-03-28T03:53:44.085Z,1028.47
2019-03-28T03:54:43.986Z,1028.48
2019-03-28T03:55:44.103Z,1028.52
2019-03-28T03:56:43.995Z,1028.52
2019-03-28T03:57:44.005Z,1028.55
2019-03-28T03:58:44.003Z,1028.54
2019-03-28T03:59:44.004Z,1028.54
2019-03-28T04:00:44.049Z,1028.57
2019-03-28T04:01:44.587Z,1028.57
2019-03-28T04:02:44.014Z,1028.56
2019-03-28T04:03:44.025Z,1028.59
2019-03-28T04:04:44.020Z,1028.62
2019-03-28T04:05:44.097Z,1028.65
2019-03-28T04:06:44.027Z,1028.64
2019-03-28T04:07:44.045Z,1028.68
2019-03-28T04:08:44.042Z,1028.70
2019-03-28T04:09:44.083Z,1028.71
2019-03-28T04:10:44.041Z,1028.70
2019-03-28T04:11:44.054Z,1028.72
2019-03-28T04:12:44.055Z,1028.71
2019-03-28T04:13:44.060Z,1028.74
2019-03-28T04:14:44.058Z,1028.72
2019-03-28T04:15:44.066Z,1028.70
2019-03-28T04:16:44.061Z,1028.67
2019-03-28T04:17:44.069Z,1028.66
2019-03-28T04:18:44.087Z,1028.67
2019-03-28T04:19:44.084Z,1028.69
2019-03-28T04:20:44.073Z,1028.69
2019-03-28T04:21:44.085Z,1028.69
2019-03-28T04:22:44.088Z,1028.70
2019-03-28T04:23:44.089Z,1028.73
2019-03-28T04:24:44.095Z,1028.74
2019-03-28T04:25:44.091Z,1028.72
2019-03-28T04:26:44.101Z,1028.71
2019-03-28T04:27:44.110Z,1028.72
2019-03-28T04:28:44.101Z,1028.76
2019-03-28T04:29:44.107Z,1028.77
2019-03-28T04:30:44.127Z,1028.79
2019-03-28T04:31:44.112Z,1028.78
2019-03-28T04:32:44.111Z,1028.77
2019-03-28T04:33:44.129Z,1028.76
2019-03-28T04:34:44.125Z,1028.81
2019-03-28T04:35:44.135Z,1028.78
2019-03-28T04:36:44.142Z,1028.79
2019-03-28T04:37:44.134Z,1028.76
2019-03-28T04:38:44.138Z,1028.72
2019-03-28T04:39:44.142Z,1028.73
2019-03-28T04:40:44.144Z,1028.77
2019-03-28T04:41:44.151Z,1028.76
2019-03-28T04:42:45.753Z,1028.76
2019-03-28T04:43:44.156Z,1028.77
2019-03-28T04:44:44.162Z,1028.77
2019-03-28T04:45:44.162Z,1028.79
2019-03-28T04:46:44.155Z,1028.83
2019-03-28T04:47:44.164Z,1028.84
2019-03-28T04:48:44.176Z,1028.81
2019-03-28T04:49:44.359Z,1028.85
2019-03-28T04:50:44.175Z,1028.83
2019-03-28T04:51:44.180Z,1028.84
2019-03-28T04:52:44.187Z,1028.86
2019-03-28T04:53:44.204Z,1028.87
2019-03-28T04:54:44.191Z,1028.88
2019-03-28T04:55:44.192Z,1028.88
2019-03-28T04:56:44.194Z,1028.89
2019-03-28T04:57:44.205Z,1028.88
2019-03-28T04:58:45.073Z,1028.89
2019-03-28T04:59:44.202Z,1028.91
2019-03-28T05:00:44.224Z,1028.91
2019-03-28T05:01:44.214Z,1028.90
2019-03-28T05:02:46.051Z,1028.94
2019-03-28T05:03:44.225Z,1028.95
2019-03-28T05:04:44.225Z,1028.93
2019-03-28T05:05:44.230Z,1028.97
2019-03-28T05:06:44.238Z,1029.00
2019-03-28T05:07:44.244Z,1028.96
2019-03-28T05:08:44.242Z,1029.01
2019-03-28T05:09:44.238Z,1028.99
2019-03-28T05:10:44.248Z,1029.00
2019-03-28T05:11:44.247Z,1029.01
2019-03-28T05:12:44.256Z,1029.03
2019-03-28T05:13:44.254Z,1029.01
2019-03-28T05:14:44.259Z,1029.03
2019-03-28T05:15:44.261Z,1029.03
2019-03-28T05:16:44.274Z,1029.01
2019-03-28T05:17:44.270Z,1028.99
2019-03-28T05:18:44.279Z,1029.03
2019-03-28T05:19:44.282Z,1029.04
2019-03-28T05:20:44.280Z,1029.06
2019-03-28T05:21:44.284Z,1029.04
2019-03-28T05:22:44.286Z,1029.05
2019-03-28T05:23:44.290Z,1029.04
2019-03-28T05:24:44.296Z,1029.07
2019-03-28T05:25:44.304Z,1029.05
2019-03-28T05:26:44.309Z,1029.05
2019-03-28T05:27:44.304Z,1029.07
2019-03-28T05:28:56.605Z,1029.08
2019-03-28T05:29:44.310Z,1029.07
2019-03-28T05:30:44.318Z,1029.06
2019-03-28T05:31:44.314Z,1029.05
2019-03-28T05:32:44.324Z,1029.07
2019-03-28T05:33:44.332Z,1029.07
2019-03-28T05:34:44.326Z,1029.08
2019-03-28T05:35:44.334Z,1029.09
2019-03-28T05:36:44.427Z,1029.11
2019-03-28T05:37:44.340Z,1029.08
2019-03-28T05:38:44.344Z,1029.09
2019-03-28T05:39:44.338Z,1029.10
2019-03-28T05:40:44.354Z,1029.13
2019-03-28T05:41:44.354Z,1029.16
2019-03-28T05:42:44.354Z,1029.13
2019-03-28T05:43:45.574Z,1029.13
2019-03-28T05:44:44.376Z,1029.15
2019-03-28T05:45:47.452Z,1029.14
2019-03-28T05:46:44.372Z,1029.16
2019-03-28T05:47:44.370Z,1029.16
2019-03-28T05:48:44.372Z,1029.15
2019-03-28T05:49:44.381Z,1029.13
2019-03-28T05:50:44.382Z,1029.17
2019-03-28T05:51:44.396Z,1029.18
2019-03-28T05:52:44.396Z,1029.15
2019-03-28T05:53:44.415Z,1029.15
2019-03-28T05:54:44.415Z,1029.19
2019-03-28T05:55:44.402Z,1029.20
2019-03-28T05:56:44.405Z,1029.22
2019-03-28T05:57:44.408Z,1029.22
2019-03-28T05:58:44.413Z,1029.19
2019-03-28T05:59:45.327Z,1029.22
2019-03-28T06:00:44.427Z,1029.21
2019-03-28T06:01:44.426Z,1029.23
2019-03-28T06:02:44.426Z,1029.21
2019-03-28T06:03:44.426Z,1029.22
2019-03-28T06:04:44.430Z,1029.23
2019-03-28T06:05:44.440Z,1029.23
2019-03-28T06:06:44.513Z,1029.25
2019-03-28T06:07:44.442Z,1029.26
2019-03-28T06:08:44.454Z,1029.26
2019-03-28T06:09:44.603Z,1029.27
2019-03-28T06:10:44.459Z,1029.26
2019-03-28T06:11:44.456Z,1029.22
2019-03-28T06:12:44.459Z,1029.22
2019-03-28T06:13:44.469Z,1029.21
2019-03-28T06:14:44.467Z,1029.21
2019-03-28T06:15:44.469Z,1029.19
2019-03-28T06:16:44.475Z,1029.25
2019-03-28T06:17:44.480Z,1029.26
2019-03-28T06:18:44.513Z,1029.25
2019-03-28T06:19:44.485Z,1029.28
2019-03-28T06:20:44.488Z,1029.28
2019-03-28T06:21:44.493Z,1029.24
2019-03-28T06:22:44.497Z,1029.26
2019-03-28T06:23:44.490Z,1029.24
2019-03-28T06:24:44.502Z,1029.25
2019-03-28T06:25:44.517Z,1029.28
2019-03-28T06:26:44.508Z,1029.28
2019-03-28T06:27:44.515Z,1029.28
2019-03-28T06:28:44.520Z,1029.31
2019-03-28T06:29:44.522Z,1029.33
2019-03-28T06:30:44.631Z,1029.30
2019-03-28T06:31:54.656Z,1029.33
2019-03-28T06:32:44.527Z,1029.30
2019-03-28T06:33:44.529Z,1029.30
2019-03-28T06:34:44.538Z,1029.34
2019-03-28T06:35:44.540Z,1029.31
2019-03-28T06:36:44.540Z,1029.29
2019-03-28T06:37:44.550Z,1029.29
2019-03-28T06:38:44.557Z,1029.31
2019-03-28T06:39:44.549Z,1029.31
2019-03-28T06:40:44.560Z,1029.31
2019-03-28T06:41:44.563Z,1029.34
2019-03-28T06:42:44.569Z,1029.29
2019-03-28T06:43:44.569Z,1029.29
2019-03-28T06:44:44.572Z,1029.33
2019-03-28T06:45:44.584Z,1029.29
2019-03-28T06:46:44.582Z,1029.35
2019-03-28T06:47:44.585Z,1029.36
2019-03-28T06:48:44.596Z,1029.37
2019-03-28T06:49:44.588Z,1029.34
2019-03-28T06:50:44.594Z,1029.32
2019-03-28T06:51:44.594Z,1029.33
2019-03-28T06:52:44.603Z,1029.34
2019-03-28T06:53:44.600Z,1029.35
2019-03-28T06:54:44.604Z,1029.32
2019-03-28T06:55:44.606Z,1029.32
2019-03-28T06:56:44.616Z,1029.36
2019-03-28T06:57:44.616Z,1029.31
2019-03-28T06:58:44.624Z,1029.32
2019-03-28T06:59:44.626Z,1029.32
2019-03-28T07:00:44.632Z,1029.36
2019-03-28T07:01:44.635Z,1029.36
2019-03-28T07:02:44.632Z,1029.32
2019-03-28T07:03:47.252Z,1029.33
2019-03-28T07:04:44.642Z,1029.29
2019-03-28T07:05:44.641Z,1029.30
2019-03-28T07:06:44.647Z,1029.31
2019-03-28T07:07:44.660Z,1029.34
2019-03-28T07:08:45.188Z,1029.31
2019-03-28T07:09:44.670Z,1029.33
2019-03-28T07:10:44.663Z,1029.35
2019-03-28T07:11:44.666Z,1029.32
2019-03-28T07:12:44.669Z,1029.36
2019-03-28T07:13:44.680Z,1029.33
2019-03-28T07:14:44.677Z,1029.36
2019-03-28T07:15:44.687Z,1029.33
2019-03-28T07:16:44.678Z,1029.33
2019-03-28T07:17:44.706Z,1029.34
2019-03-28T07:18:44.688Z,1029.32
2019-03-28T07:19:44.709Z,1029.34
2019-03-28T07:20:44.702Z,1029.32
2019-03-28T07:21:44.703Z,1029.28
2019-03-28T07:22:46.032Z,1029.31
2019-03-28T07:23:44.705Z,1029.27
2019-03-28T07:24:44.707Z,1029.28
2019-03-28T07:25:44.715Z,1029.31
2019-03-28T07:26:44.721Z,1029.24
2019-03-28T07:27:44.723Z,1029.27
2019-03-28T07:28:44.723Z,1029.26
2019-03-28T07:29:50.877Z,1029.22
2019-03-28T07:30:45.374Z,1029.18
2019-03-28T07:31:44.740Z,1029.18
2019-03-28T07:32:44.750Z,1029.19
2019-03-28T07:33:44.746Z,1029.18
2019-03-28T07:34:44.749Z,1029.21
2019-03-28T07:35:44.755Z,1029.21
2019-03-28T07:36:44.751Z,1029.18
2019-03-28T07:37:44.764Z,1029.18
2019-03-28T07:38:44.761Z,1029.14
2019-03-28T07:39:44.761Z,1029.16
2019-03-28T07:40:44.767Z,1029.15
2019-03-28T07:41:44.785Z,1029.18
2019-03-28T07:42:44.790Z,1029.19
2019-03-28T07:43:44.773Z,1029.21
2019-03-28T07:44:44.783Z,1029.23
2019-03-28T07:45:44.791Z,1029.21
2019-03-28T07:46:47.468Z,1029.16
2019-03-28T07:47:44.794Z,1029.19
2019-03-28T07:48:44.793Z,1029.15
2019-03-28T07:49:45.486Z,1029.19
2019-03-28T07:50:44.801Z,1029.19
2019-03-28T07:51:44.802Z,1029.23
2019-03-28T07:52:44.809Z,1029.25
2019-03-28T07:53:44.818Z,1029.26
2019-03-28T07:54:44.813Z,1029.24
2019-03-28T07:55:44.817Z,1029.21
2019-03-28T07:56:44.831Z,1029.22
2019-03-28T07:57:44.831Z,1029.22
2019-03-28T07:58:44.831Z,1029.24
2019-03-28T07:59:44.829Z,1029.25
2019-03-28T08:00:44.855Z,1029.25
2019-03-28T08:01:44.839Z,1029.31
2019-03-28T08:02:44.845Z,1029.30
2019-03-28T08:03:44.852Z,1029.33
2019-03-28T08:04:44.849Z,1029.32
2019-03-28T08:05:44.871Z,1029.33
2019-03-28T08:06:49.955Z,1029.31
2019-03-28T08:07:45.842Z,1029.31
2019-03-28T08:08:44.865Z,1029.33
2019-03-28T08:09:44.872Z,1029.34
2019-03-28T08:10:44.869Z,1029.34
2019-03-28T08:11:47.973Z,1029.29
2019-03-28T08:12:44.885Z,1029.36
2019-03-28T08:13:44.882Z,1029.34
2019-03-28T08:14:44.883Z,1029.33
2019-03-28T08:15:44.881Z,1029.32
2019-03-28T08:16:44.897Z,1029.34
2019-03-28T08:17:44.897Z,1029.31
2019-03-28T08:18:45.460Z,1029.33
2019-03-28T08:19:44.903Z,1029.35
2019-03-28T08:20:44.902Z,1029.32
2019-03-28T08:21:44.911Z,1029.36
2019-03-28T08:22:44.915Z,1029.37
2019-03-28T08:23:44.917Z,1029.39
2019-03-28T08:24:44.922Z,1029.40
2019-03-28T08:25:44.947Z,1029.39
2019-03-28T08:26:44.936Z,1029.42
2019-03-28T08:27:45.033Z,1029.39
2019-03-28T08:28:44.939Z,1029.36
2019-03-28T08:29:44.945Z,1029.33
2019-03-28T08:30:45.494Z,1029.31
2019-03-28T08:31:44.942Z,1029.25
2019-03-28T08:32:44.960Z,1029.40
2019-03-28T08:33:44.953Z,1029.40
2019-03-28T08:34:44.984Z,1029.41
2019-03-28T08:35:44.961Z,1029.46
2019-03-28T08:36:44.961Z,1029.45
2019-03-28T08:37:44.967Z,1029.45
2019-03-28T08:38:44.974Z,1029.50
2019-03-28T08:39:44.975Z,1029.48
2019-03-28T08:40:45.168Z,1029.48
2019-03-28T08:41:48.421Z,1029.50
2019-03-28T08:42:45.009Z,1029.53
2019-03-28T08:43:44.987Z,1029.58
2019-03-28T08:44:44.996Z,1029.53
2019-03-28T08:45:45.021Z,1029.57
2019-03-28T08:46:44.999Z,1029.57
2019-03-28T08:47:44.999Z,1029.59
2019-03-28T08:48:45.073Z,1029.62
2019-03-28T08:49:45.006Z,1029.60
2019-03-28T08:50:45.013Z,1029.65
2019-03-28T08:51:45.017Z,1029.67
2019-03-28T08:52:45.033Z,1029.71
2019-03-28T08:53:45.023Z,1029.75
2019-03-28T08:54:45.025Z,1029.77
2019-03-28T08:55:45.033Z,1029.79
2019-03-28T08:56:45.033Z,1029.76
2019-03-28T08:57:45.037Z,1029.78
2019-03-28T08:58:45.043Z,1029.78
2019-03-28T08:59:45.056Z,1029.80
2019-03-28T09:00:52.477Z,1029.78
2019-03-28T09:01:45.051Z,1029.82
2019-03-28T09:02:45.053Z,1029.79
2019-03-28T09:03:45.059Z,1029.76
2019-03-28T09:04:45.082Z,1029.75
2019-03-28T09:05:45.065Z,1029.73
2019-03-28T09:06:45.072Z,1029.82
2019-03-28T09:07:45.079Z,1029.84
2019-03-28T09:08:45.079Z,1029.87
2019-03-28T09:09:45.083Z,1029.87
2019-03-28T09:10:45.083Z,1029.88
2019-03-28T09:11:45.082Z,1029.86
2019-03-28T09:12:45.094Z,1029.89
2019-03-28T09:13:45.097Z,1029.90
2019-03-28T09:14:45.132Z,1029.88
2019-03-28T09:15:45.099Z,1029.88
2019-03-28T09:16:45.104Z,1029.92
2019-03-28T09:17:45.107Z,1029.91
2019-03-28T09:18:45.109Z,1029.93
2019-03-28T09:19:45.109Z,1029.92
2019-03-28T09:20:45.119Z,1029.94
2019-03-28T09:21:45.123Z,1029.96
2019-03-28T09:22:45.248Z,1029.99
2019-03-28T09:23:45.341Z,1029.97
2019-03-28T09:24:45.152Z,1029.98
2019-03-28T09:25:45.172Z,1029.96
2019-03-28T09:26:45.138Z,1029.98
2019-03-28T09:27:45.241Z,1030.01
2019-03-28T09:28:45.160Z,1029.99
2019-03-28T09:29:45.155Z,1029.99
2019-03-28T09:30:49.702Z,1030.00
2019-03-28T09:31:45.158Z,1030.00
2019-03-28T09:32:45.163Z,1030.02
2019-03-28T09:33:45.160Z,1030.02
2019-03-28T09:34:45.177Z,1029.99
2019-03-28T09:35:45.226Z,1030.00
2019-03-28T09:36:45.204Z,1029.99
2019-03-28T09:37:45.183Z,1030.06
2019-03-28T09:38:45.196Z,1030.00
2019-03-28T09:39:45.208Z,1030.03
2019-03-28T09:40:45.206Z,1030.00
2019-03-28T09:41:45.196Z,1030.08
2019-03-28T09:42:45.250Z,1030.04
2019-03-28T09:43:55.124Z,1030.04
2019-03-28T09:44:45.207Z,1030.08
2019-03-28T09:45:45.205Z,1030.04
2019-03-28T09:46:45.205Z,1030.08
2019-03-28T09:47:45.218Z,1030.07
2019-03-28T09:48:45.218Z,1030.09
2019-03-28T09:49:45.225Z,1030.08
2019-03-28T09:50:45.223Z,1030.08
2019-03-28T09:51:45.229Z,1030.06
2019-03-28T09:52:45.232Z,1030.06
2019-03-28T09:53:45.232Z,1030.02
2019-03-28T09:54:45.240Z,1030.06
2019-03-28T09:55:45.247Z,1030.06
2019-03-28T09:56:45.243Z,1029.99
2019-03-28T09:57:45.252Z,1030.00
2019-03-28T09:58:45.253Z,1030.02
2019-03-28T09:59:45.260Z,1030.03
2019-03-28T10:00:45.282Z,1030.00
2019-03-28T10:01:45.267Z,1030.02
2019-03-28T10:02:45.270Z,1030.01
2019-03-28T10:03:45.272Z,1029.99
2019-03-28T10:04:45.273Z,1029.98
2019-03-28T10:05:45.280Z,1029.98
2019-03-28T10:06:45.281Z,1029.98
2019-03-28T10:07:45.307Z,1029.99
2019-03-28T10:08:45.290Z,1029.98
2019-03-28T10:09:45.642Z,1030.01
2019-03-28T10:10:48.529Z,1029.99
2019-03-28T10:11:45.299Z,1030.03
2019-03-28T10:12:45.306Z,1029.98
2019-03-28T10:13:45.307Z,1030.00
2019-03-28T10:14:45.311Z,1029.99
2019-03-28T10:15:45.315Z,1030.00
2019-03-28T10:16:45.321Z,1029.99
2019-03-28T10:17:45.324Z,1029.99
2019-03-28T10:18:45.430Z,1029.99
2019-03-28T10:19:45.853Z,1030.00
2019-03-28T10:20:45.333Z,1029.98
2019-03-28T10:21:45.332Z,1029.97
2019-03-28T10:22:45.342Z,1029.96
2019-03-28T10:23:45.341Z,1029.94
2019-03-28T10:24:45.351Z,1029.95
2019-03-28T10:25:45.355Z,1029.93
2019-03-28T10:26:45.363Z,1029.93
2019-03-28T10:27:45.352Z,1029.93
2019-03-28T10:28:45.360Z,1029.96
2019-03-28T10:29:45.361Z,1029.96
2019-03-28T10:30:45.364Z,1029.92
2019-03-28T10:31:45.370Z,1029.92
2019-03-28T10:32:45.370Z,1029.92
2019-03-28T10:33:45.382Z,1029.91
2019-03-28T10:34:45.383Z,1029.83
2019-03-28T10:35:45.386Z,1029.90
2019-03-28T10:36:45.390Z,1029.83
2019-03-28T10:37:45.395Z,1029.86
2019-03-28T10:38:45.404Z,1029.84
2019-03-28T10:39:45.388Z,1029.84
2019-03-28T10:40:45.414Z,1029.88
2019-03-28T10:41:45.405Z,1029.84
2019-03-28T10:42:45.412Z,1029.84
2019-03-28T10:43:45.413Z,1029.77
2019-03-28T10:44:45.418Z,1029.83
2019-03-28T10:45:45.416Z,1029.79
2019-03-28T10:46:45.419Z,1029.79
2019-03-28T10:47:45.430Z,1029.85
2019-03-28T10:48:45.431Z,1029.85
2019-03-28T10:49:45.434Z,1029.82
2019-03-28T10:50:46.156Z,1029.83
2019-03-28T10:51:45.438Z,1029.85
2019-03-28T10:52:45.447Z,1029.85
2019-03-28T10:53:45.450Z,1029.83
2019-03-28T10:54:45.451Z,1029.81
2019-03-28T10:55:45.456Z,1029.81
2019-03-28T10:56:51.978Z,1029.83
2019-03-28T10:57:45.477Z,1029.88
2019-03-28T10:58:45.473Z,1029.85
2019-03-28T10:59:45.475Z,1029.87
2019-03-28T11:00:45.495Z,1029.83
2019-03-28T11:01:50.047Z,1029.85
2019-03-28T11:02:45.506Z,1029.85
2019-03-28T11:03:45.485Z,1029.87
2019-03-28T11:04:45.493Z,1029.87
2019-03-28T11:05:45.492Z,1029.88
2019-03-28T11:06:45.492Z,1029.87
2019-03-28T11:07:45.518Z,1029.86
2019-03-28T11:08:45.505Z,1029.85
2019-03-28T11:09:45.506Z,1029.82
2019-03-28T11:10:45.516Z,1029.80
2019-03-28T11:11:45.515Z,1029.79
2019-03-28T11:12:45.519Z,1029.82
2019-03-28T11:13:45.523Z,1029.81
2019-03-28T11:14:46.315Z,1029.78
2019-03-28T11:15:45.527Z,1029.76
2019-03-28T11:16:48.254Z,1029.75
2019-03-28T11:17:45.540Z,1029.72
2019-03-28T11:18:45.545Z,1029.70
2019-03-28T11:19:45.540Z,1029.70
2019-03-28T11:20:45.543Z,1029.68
2019-03-28T11:21:45.553Z,1029.70
2019-03-28T11:22:45.549Z,1029.70
2019-03-28T11:23:45.561Z,1029.67
2019-03-28T11:24:46.545Z,1029.66
2019-03-28T11:25:45.563Z,1029.63
2019-03-28T11:26:45.571Z,1029.61
2019-03-28T11:27:45.572Z,1029.62
2019-03-28T11:28:45.575Z,1029.57
2019-03-28T11:29:45.587Z,1029.54
2019-03-28T11:30:45.587Z,1029.58
2019-03-28T11:31:50.391Z,1029.53
2019-03-28T11:32:45.591Z,1029.54
2019-03-28T11:33:45.596Z,1029.49
2019-03-28T11:34:45.602Z,1029.45
2019-03-28T11:35:45.597Z,1029.48
2019-03-28T11:36:45.605Z,1029.43
2019-03-28T11:37:45.616Z,1029.46
2019-03-28T11:38:45.628Z,1029.41
2019-03-28T11:39:46.635Z,1029.41
2019-03-28T11:40:45.616Z,1029.40
2019-03-28T11:41:45.623Z,1029.37
2019-03-28T11:42:45.627Z,1029.38
2019-03-28T11:43:45.783Z,1029.39
2019-03-28T11:44:45.631Z,1029.38
2019-03-28T11:45:45.648Z,1029.35
2019-03-28T11:46:45.643Z,1029.36
2019-03-28T11:47:45.647Z,1029.37
2019-03-28T11:48:45.645Z,1029.36
2019-03-28T11:49:45.654Z,1029.37
2019-03-28T11:50:45.646Z,1029.38
2019-03-28T11:51:45.658Z,1029.35
2019-03-28T11:52:45.658Z,1029.34
2019-03-28T11:53:45.671Z,1029.31
2019-03-28T11:54:45.668Z,1029.32
2019-03-28T11:55:48.719Z,1029.33
2019-03-28T11:56:45.671Z,1029.33
2019-03-28T11:57:45.688Z,1029.32
2019-03-28T11:58:45.701Z,1029.30
2019-03-28T11:59:45.698Z,1029.39
2019-03-28T12:00:45.824Z,1029.33
2019-03-28T12:01:59.108Z,1029.34
2019-03-28T12:02:46.288Z,1029.31
2019-03-28T12:03:45.704Z,1029.30
2019-03-28T12:04:45.714Z,1029.28
2019-03-28T12:05:45.711Z,1029.32